Time;durP1;ratioP1;P1;durP2;ratioP2;P2;SDS_P1;SDS_P2;PMS_P1;PMS_P2;Temp;Humidity;BMP_temperature;BMP_pressure;BME280_temperature;BME280_humidity;BME280_pressure;Samples;Min_cycle;Max_cycle;Signal;HPM_P1;HPM_P2
2022/09/07 00:02:08;;;;;;;2.40;2.28;;;;;;;18.70;77.30;99909.88;5113417;28;20207;-53
2022/09/07 00:04:35;;;;;;;3.22;2.72;;;;;;;18.69;77.12;99910.78;5113727;28;20207;-53
2022/09/07 00:07:02;;;;;;;2.65;2.55;;;;;;;18.70;77.15;99909.00;5113830;28;20200;-56
2022/09/07 00:09:29;;;;;;;4.07;2.58;;;;;;;18.83;76.86;99910.88;5114653;28;20204;-56
2022/09/07 00:11:57;;;;;;;3.88;2.47;;;;;;;18.60;76.55;99853.47;5113546;28;20207;-56
2022/09/07 00:14:24;;;;;;;2.50;2.30;;;;;;;18.85;76.67;99923.91;5113603;28;20671;-56
2022/09/07 00:16:51;;;;;;;2.60;2.40;;;;;;;18.92;76.56;99913.91;5112266;28;20226;-52
2022/09/07 00:19:18;;;;;;;4.10;2.30;;;;;;;18.73;76.90;99901.81;5113463;28;25095;-52
2022/09/07 00:21:45;;;;;;;2.70;2.50;;;;;;;18.79;77.04;99919.88;5113176;28;25071;-52
2022/09/07 00:24:12;;;;;;;2.93;2.70;;;;;;;18.72;77.49;99918.53;5113292;28;20200;-52
2022/09/07 00:26:39;;;;;;;3.53;3.22;;;;;;;18.66;78.00;99918.84;5113139;28;25109;-50
2022/09/07 00:29:07;;;;;;;5.00;2.88;;;;;;;18.61;78.56;99920.91;5112995;28;20204;-50
2022/09/07 00:31:34;;;;;;;2.50;2.40;;;;;;;18.64;78.16;99920.72;5113486;28;20567;-56
2022/09/07 00:34:02;;;;;;;8.07;3.30;;;;;;;18.60;78.47;99921.84;5112913;28;20635;-57
2022/09/07 00:36:29;;;;;;;2.72;2.53;;;;;;;18.58;78.61;99928.09;5113274;28;20782;-56
2022/09/07 00:38:57;;;;;;;3.20;2.95;;;;;;;18.53;78.90;99928.31;5113059;28;25059;-57
2022/09/07 00:41:24;;;;;;;3.13;2.65;;;;;;;18.62;78.59;99929.63;5113483;28;25077;-57
2022/09/07 00:43:53;;;;;;;3.65;2.63;;;;;;;18.57;78.64;99932.47;5112734;28;25170;-57
2022/09/07 00:46:24;;;;;;;3.58;2.60;;;;;;;18.51;78.91;99922.28;5112903;28;25078;-57
2022/09/07 00:48:56;;;;;;;3.15;2.97;;;;;;;18.54;79.23;99930.00;5112800;28;20218;-57
2022/09/07 00:51:29;;;;;;;3.00;2.80;;;;;;;18.49;79.71;99929.44;5112807;28;20277;-57
2022/09/07 00:53:59;;;;;;;6.05;3.30;;;;;;;18.49;79.54;99934.69;5112562;28;20208;-57
2022/09/07 00:56:31;;;;;;;3.00;2.70;;;;;;;18.46;79.62;99935.69;5112618;28;20235;-57
2022/09/07 00:58:59;;;;;;;3.28;2.65;;;;;;;18.46;79.68;99933.06;5113072;28;20665;-57
2022/09/07 01:01:27;;;;;;;2.80;2.60;;;;;;;18.38;80.18;99930.00;5112896;28;20224;-57
2022/09/07 01:03:57;;;;;;;3.25;2.95;;;;;;;18.36;80.30;99928.38;5112921;28;20567;-53
2022/09/07 01:06:28;;;;;;;3.45;2.50;;;;;;;18.36;80.25;99931.03;5111777;28;25059;-52
2022/09/07 01:08:56;;;;;;;3.10;2.80;;;;;;;18.35;80.56;99929.31;5112168;28;25062;-52
2022/09/07 01:11:23;;;;;;;2.95;2.75;;;;;;;18.32;80.88;99924.22;5112239;28;25119;-52
2022/09/07 01:13:52;;;;;;;3.80;2.97;;;;;;;18.33;81.20;99925.91;5112566;28;20299;-51
2022/09/07 01:16:31;;;;;;;3.00;2.80;;;;;;;18.34;80.99;99925.00;5112164;28;25082;-52
2022/09/07 01:19:13;;;;;;;2.90;2.70;;;;;;;18.35;81.02;99924.06;5112056;28;20298;-52
2022/09/07 01:21:57;;;;;;;3.22;3.03;;;;;;;18.39;80.94;99926.47;5112179;28;20204;-52
2022/09/07 01:24:48;;;;;;;3.58;3.30;;;;;;;18.32;81.54;99916.34;5112109;28;25063;-57
2022/09/07 01:27:51;;;;;;;3.28;3.00;;;;;;;18.26;80.63;99916.69;5112312;28;25064;-57
2022/09/07 01:30:22;;;;;;;3.40;3.17;;;;;;;18.01;80.35;99910.09;5112405;28;20209;-57
2022/09/07 01:33:24;;;;;;;6.80;3.30;;;;;;;17.98;80.98;99917.28;5112073;28;20372;-57
2022/09/07 01:36:02;;;;;;;3.30;2.92;;;;;;;17.88;81.24;99914.31;5078943;27;25065;-57
2022/09/07 01:38:35;;;;;;;6.50;3.13;;;;;;;17.87;81.50;99922.25;5112524;28;20547;-58
2022/09/07 01:41:04;;;;;;;4.50;3.03;;;;;;;17.91;81.64;99919.41;5111959;28;20334;-56
2022/09/07 01:43:38;;;;;;;3.47;3.17;;;;;;;17.80;81.59;99892.00;5111956;28;20207;-56
2022/09/07 01:46:13;;;;;;;3.30;3.10;;;;;;;17.90;81.84;99907.19;5111551;28;25110;-57
2022/09/07 01:48:43;;;;;;;5.43;3.30;;;;;;;18.07;82.07;99909.75;5111816;28;25074;-57
2022/09/07 01:51:11;;;;;;;3.37;3.10;;;;;;;18.08;82.04;99905.38;5111752;28;20286;-56
2022/09/07 01:53:43;;;;;;;4.97;3.43;;;;;;;18.08;81.44;99900.97;5111577;28;25159;-56
2022/09/07 01:56:13;;;;;;;3.83;3.43;;;;;;;18.06;81.70;99901.97;5111443;28;20236;-57
2022/09/07 01:58:44;;;;;;;12.27;3.30;;;;;;;18.02;82.21;99898.66;5111869;28;20200;-58
2022/09/07 02:01:20;;;;;;;3.20;3.00;;;;;;;18.03;82.48;99897.75;5112279;28;20715;-57
2022/09/07 02:03:51;;;;;;;5.53;3.73;;;;;;;18.09;83.37;99900.03;5112623;28;20583;-58
2022/09/07 02:06:22;;;;;;;7.50;3.47;;;;;;;17.98;82.72;99905.00;5112108;28;25107;-58
2022/09/07 02:08:55;;;;;;;4.13;3.20;;;;;;;18.00;82.97;99891.78;5112329;28;20215;-58
2022/09/07 02:11:28;;;;;;;4.97;3.50;;;;;;;17.93;83.20;99907.03;5111999;28;25056;-58
2022/09/07 02:14:00;;;;;;;8.23;3.70;;;;;;;17.91;83.74;99906.28;5111351;28;25071;-52
2022/09/07 02:16:32;;;;;;;4.83;3.70;;;;;;;17.87;83.95;99906.50;5110063;28;25111;-52
2022/09/07 02:19:04;;;;;;;4.63;4.07;;;;;;;17.83;84.09;99904.97;5111087;28;20584;-52
2022/09/07 02:21:36;;;;;;;7.43;4.10;;;;;;;17.80;84.48;99908.63;5110902;28;20261;-52
2022/09/07 02:24:07;;;;;;;3.70;3.50;;;;;;;17.86;84.55;99910.06;5110715;28;25062;-56
2022/09/07 02:26:36;;;;;;;4.97;4.00;;;;;;;17.74;84.28;99895.78;5110939;28;25069;-57
2022/09/07 02:29:04;;;;;;;5.47;4.00;;;;;;;17.80;84.78;99907.75;5110970;28;25144;-57
2022/09/07 02:31:32;;;;;;;7.93;4.20;;;;;;;17.83;84.97;99897.97;5110865;28;25154;-52
2022/09/07 02:34:00;;;;;;;7.77;4.00;;;;;;;17.76;85.32;99897.41;5110508;28;20244;-51
2022/09/07 02:36:32;;;;;;;10.33;4.13;;;;;;;17.77;85.30;99895.63;5110615;28;20187;-52
2022/09/07 02:38:59;;;;;;;10.13;4.40;;;;;;;17.65;85.89;99896.28;5110653;28;25128;-52
2022/09/07 02:41:34;;;;;;;4.00;3.70;;;;;;;17.61;86.07;99889.44;5110460;28;25086;-51
2022/09/07 02:44:04;;;;;;;7.23;4.40;;;;;;;17.65;86.32;99894.50;5110362;28;25106;-52
2022/09/07 02:46:45;;;;;;;9.17;4.33;;;;;;;17.61;86.28;99895.53;5110744;28;20230;-56
2022/09/07 02:49:24;;;;;;;6.13;4.10;;;;;;;17.62;86.36;99885.88;5111560;28;20198;-56
2022/09/07 02:52:00;;;;;;;6.87;4.00;;;;;;;17.60;86.94;99893.00;5111413;28;20202;-56
2022/09/07 02:54:38;;;;;;;4.77;4.37;;;;;;;17.63;86.12;99898.97;5110973;28;20198;-56
2022/09/07 02:57:14;;;;;;;7.40;4.53;;;;;;;17.60;86.16;99893.88;5110344;28;20228;-57
2022/09/07 02:59:52;;;;;;;8.03;4.07;;;;;;;17.59;86.59;99900.03;5110712;28;20198;-56
2022/09/07 03:02:28;;;;;;;7.30;4.17;;;;;;;17.56;87.00;99896.72;5110230;28;20206;-56
2022/09/07 03:05:02;;;;;;;4.60;3.97;;;;;;;17.50;88.01;99899.63;5110325;28;20222;-57
2022/09/07 03:07:32;;;;;;;4.27;3.83;;;;;;;17.38;89.37;99894.09;5110336;28;20204;-57
2022/09/07 03:10:02;;;;;;;11.33;4.23;;;;;;;17.21;91.13;99894.09;5110630;28;20580;-57
2022/09/07 03:12:39;;;;;;;4.37;3.83;;;;;;;17.14;91.52;99897.97;5110415;28;20194;-57
2022/09/07 03:15:07;;;;;;;5.20;4.10;;;;;;;17.02;92.09;99893.31;5109887;28;20193;-57
2022/09/07 03:17:35;;;;;;;5.47;4.30;;;;;;;17.02;92.61;99901.19;5110264;28;20199;-57
2022/09/07 03:20:02;;;;;;;5.03;4.20;;;;;;;16.98;92.68;99897.84;5110369;28;20290;-53
2022/09/07 03:22:32;;;;;;;11.93;4.57;;;;;;;16.95;93.38;99890.13;5110209;28;20195;-50
2022/09/07 03:24:59;;;;;;;6.00;3.67;;;;;;;16.91;93.52;99890.38;5110054;28;20195;-51
2022/09/07 03:27:26;;;;;;;6.90;3.83;;;;;;;16.88;93.82;99888.75;5109743;28;20197;-51
2022/09/07 03:29:53;;;;;;;7.30;3.80;;;;;;;16.85;93.92;99893.28;5109916;28;20204;-51
2022/09/07 03:32:20;;;;;;;4.07;3.67;;;;;;;16.87;94.03;99899.31;5109613;28;20226;-52
2022/09/07 03:34:48;;;;;;;3.80;3.40;;;;;;;16.82;94.95;99901.28;5109966;28;20202;-51
2022/09/07 03:37:15;;;;;;;4.53;4.03;;;;;;;16.77;95.83;99900.66;5109875;28;20225;-51
2022/09/07 03:39:42;;;;;;;4.30;3.87;;;;;;;16.81;95.47;99904.84;5109949;28;20198;-52
2022/09/07 03:42:09;;;;;;;4.07;3.77;;;;;;;16.85;95.82;99912.47;5109637;28;20199;-52
2022/09/07 03:44:36;;;;;;;4.70;4.10;;;;;;;16.84;97.14;99912.53;5109694;28;20190;-52
2022/09/07 03:47:03;;;;;;;9.67;4.47;;;;;;;16.73;97.75;99904.34;5109432;28;20198;-51
2022/09/07 03:49:29;;;;;;;7.07;4.20;;;;;;;16.76;98.38;99914.69;5109974;28;20297;-52
2022/09/07 03:51:58;;;;;;;6.20;4.80;;;;;;;16.80;98.33;99921.50;5109582;28;20190;-52
2022/09/07 03:54:25;;;;;;;9.53;5.07;;;;;;;16.73;98.53;99918.31;5108182;28;20194;-52
2022/09/07 03:56:52;;;;;;;8.13;5.10;;;;;;;16.72;100.00;99915.75;5107260;28;20215;-53
2022/09/07 03:59:18;;;;;;;6.47;4.87;;;;;;;16.72;100.00;99915.75;5108315;28;20201;-57
2022/09/07 04:01:45;;;;;;;7.33;4.70;;;;;;;16.85;99.99;99922.13;5107869;28;20205;-56
2022/09/07 04:04:13;;;;;;;5.43;4.70;;;;;;;16.90;100.00;99923.59;5108707;28;20206;-56
2022/09/07 04:06:40;;;;;;;14.17;4.90;;;;;;;16.95;99.35;99923.38;5109564;28;20282;-57
2022/09/07 04:09:12;;;;;;;7.10;5.50;;;;;;;16.90;100.00;99928.00;5109423;28;20198;-53
2022/09/07 04:11:40;;;;;;;15.10;5.70;;;;;;;16.85;100.00;99924.75;5109523;28;20197;-57
2022/09/07 04:14:07;;;;;;;9.77;5.93;;;;;;;16.83;100.00;99927.44;5109248;28;20194;-57
2022/09/07 04:16:35;;;;;;;10.67;6.30;;;;;;;16.86;100.00;99926.44;5109705;28;20642;-57
2022/09/07 04:19:01;;;;;;;6.57;5.93;;;;;;;16.93;100.00;99927.88;5109477;28;20194;-56
2022/09/07 04:21:30;;;;;;;12.47;5.77;;;;;;;16.97;100.00;99934.63;5108769;28;20281;-56
2022/09/07 04:23:57;;;;;;;8.10;5.50;;;;;;;16.97;100.00;99932.00;5108562;28;20195;-56
2022/09/07 04:26:27;;;;;;;13.83;6.20;;;;;;;16.99;100.00;99940.66;5108193;28;20313;-57
2022/09/07 04:28:55;;;;;;;6.77;5.87;;;;;;;16.82;100.00;99920.47;5107560;28;20285;-57
2022/09/07 04:31:23;;;;;;;16.17;6.60;;;;;;;17.04;100.00;99941.31;5108205;28;20199;-56
2022/09/07 04:33:51;;;;;;;12.60;5.83;;;;;;;17.06;100.00;99950.78;5107787;28;20222;-60
2022/09/07 04:36:19;;;;;;;41.87;8.37;;;;;;;17.18;100.00;99954.56;5108321;28;20305;-59
2022/09/07 04:38:47;;;;;;;26.10;7.03;;;;;;;17.27;100.00;99938.38;5107953;28;20199;-58
2022/09/07 04:41:16;;;;;;;7.27;5.40;;;;;;;17.93;97.05;99962.19;5111023;28;20191;-60
2022/09/07 04:43:45;;;;;;;8.03;5.43;;;;;;;18.99;89.92;99965.22;5111684;28;20280;-60
2022/09/07 04:46:18;;;;;;;12.13;5.72;;;;;;;19.91;84.09;99953.72;5112067;28;20198;-59
2022/09/07 04:48:47;;;;;;;7.90;4.97;;;;;;;20.37;79.46;99948.31;5112320;28;20202;-62
2022/09/07 04:51:15;;;;;;;8.85;5.13;;;;;;;20.03;80.19;99958.25;5111958;28;20194;-61
2022/09/07 04:53:42;;;;;;;11.90;5.88;;;;;;;19.81;81.33;99971.03;5112546;28;20216;-59
2022/09/07 04:56:09;;;;;;;7.78;4.97;;;;;;;20.04;80.73;99965.22;5112481;28;20670;-58
2022/09/07 04:58:36;;;;;;;9.07;6.18;;;;;;;20.97;76.71;99973.47;5112281;27;20194;-59
2022/09/07 05:01:06;;;;;;;8.15;5.97;;;;;;;22.14;69.91;99971.84;5112661;28;20194;-59
2022/09/07 05:03:36;;;;;;;9.65;5.50;;;;;;;23.30;64.69;99980.28;5112580;28;20622;-59
2022/09/07 05:06:04;;;;;;;9.05;5.65;;;;;;;24.58;58.82;99982.78;5112866;28;20654;-58
2022/09/07 05:08:35;;;;;;;9.70;6.32;;;;;;;25.64;54.70;99993.63;5112536;28;20200;-60
2022/09/07 05:11:02;;;;;;;13.88;6.45;;;;;;;26.68;50.80;99990.88;5112550;28;20586;-58
2022/09/07 05:13:30;;;;;;;12.50;6.60;;;;;;;27.38;48.17;99992.59;5112677;28;20220;-58
2022/09/07 05:15:57;;;;;;;9.98;5.78;;;;;;;27.99;46.63;99995.78;5112279;28;20632;-58
2022/09/07 05:18:26;;;;;;;10.05;6.25;;;;;;;29.19;43.47;99999.41;5112410;28;20194;-59
2022/09/07 05:20:53;;;;;;;12.27;5.47;;;;;;;29.74;41.83;100001.94;5111786;28;20209;-59
2022/09/07 05:23:20;;;;;;;13.05;5.38;;;;;;;30.06;40.66;99996.03;5112100;28;20203;-59
2022/09/07 05:25:47;;;;;;;6.43;5.80;;;;;;;30.14;39.59;100004.09;5106601;28;20194;-59
2022/09/07 05:28:14;;;;;;;11.88;6.50;;;;;;;29.84;40.29;99998.19;5112244;28;20197;-59
2022/09/07 05:30:41;;;;;;;9.23;6.20;;;;;;;30.41;39.55;100003.09;5112184;28;20670;-59
2022/09/07 05:33:08;;;;;;;11.65;5.72;;;;;;;30.73;38.81;100005.97;5111788;28;20222;-59
2022/09/07 05:35:37;;;;;;;6.70;5.32;;;;;;;30.84;38.36;100011.03;5112501;28;20212;-59
2022/09/07 05:38:03;;;;;;;10.70;5.95;;;;;;;30.87;38.44;99999.16;5111663;28;20222;-60
2022/09/07 05:40:32;;;;;;;11.30;6.28;;;;;;;31.44;37.17;100013.56;5111667;28;20205;-59
2022/09/07 05:42:59;;;;;;;8.68;5.63;;;;;;;32.06;36.33;100011.22;5111705;28;20197;-59
2022/09/07 05:45:26;;;;;;;6.43;5.20;;;;;;;32.49;35.25;100012.69;5112192;28;20209;-53
2022/09/07 05:47:54;;;;;;;11.10;5.85;;;;;;;32.91;34.54;100012.38;5111545;28;20198;-54
2022/09/07 05:50:21;;;;;;;15.70;6.25;;;;;;;33.19;33.46;100004.63;5111688;28;20205;-53
2022/09/07 05:52:49;;;;;;;9.43;6.35;;;;;;;33.48;32.95;100007.50;5111753;28;20294;-53
2022/09/07 05:55:16;;;;;;;11.60;5.10;;;;;;;32.54;33.76;100009.44;5111444;28;20233;-54
2022/09/07 05:57:43;;;;;;;14.30;7.55;;;;;;;32.07;34.65;100005.69;5111525;28;20789;-53
2022/09/07 06:00:12;;;;;;;8.73;5.55;;;;;;;30.50;36.79;99994.09;5110868;28;20186;-53
2022/09/07 06:02:40;;;;;;;9.52;5.85;;;;;;;30.13;37.67;99989.91;5110690;28;20689;-53
2022/09/07 06:05:08;;;;;;;6.22;5.00;;;;;;;31.31;35.80;99989.91;5110756;28;20666;-52
2022/09/07 06:07:35;;;;;;;9.15;6.63;;;;;;;31.87;35.46;99971.31;5111101;28;20190;-53
2022/09/07 06:10:04;;;;;;;11.57;5.30;;;;;;;32.75;33.74;99998.97;5110938;28;20241;-53
2022/09/07 06:12:31;;;;;;;5.75;5.10;;;;;;;33.60;32.06;99997.16;5111091;28;20199;-53
2022/09/07 06:14:59;;;;;;;11.25;5.35;;;;;;;33.98;31.65;100005.22;5110886;28;20205;-60
2022/09/07 06:17:27;;;;;;;9.40;5.00;;;;;;;34.42;30.13;99998.09;5104545;28;20305;-58
2022/09/07 06:19:54;;;;;;;7.03;4.32;;;;;;;34.52;30.50;99998.63;5111109;28;20198;-60
2022/09/07 06:22:21;;;;;;;4.90;3.90;;;;;;;34.84;29.44;100004.66;5110954;28;20579;-59
2022/09/07 06:24:48;;;;;;;7.65;4.63;;;;;;;34.86;29.24;100010.72;5111018;28;20203;-54
2022/09/07 06:27:16;;;;;;;5.38;3.40;;;;;;;35.29;28.73;99999.00;5110288;28;20277;-52
2022/09/07 06:29:43;;;;;;;7.03;3.85;;;;;;;35.19;28.82;99998.44;5109704;28;20226;-53
2022/09/07 06:32:10;;;;;;;10.27;4.28;;;;;;;35.42;28.74;99992.88;5110448;28;20240;-54
2022/09/07 06:34:37;;;;;;;9.23;4.15;;;;;;;35.52;28.37;99995.25;5110740;28;20194;-55
2022/09/07 06:37:04;;;;;;;7.47;4.13;;;;;;;35.41;28.62;99995.78;5110745;28;20603;-59
2022/09/07 06:39:33;;;;;;;7.80;3.70;;;;;;;35.15;28.89;99986.34;5110727;28;20198;-54
2022/09/07 06:42:00;;;;;;;8.30;4.05;;;;;;;35.20;28.88;99994.72;5110554;28;20612;-53
2022/09/07 06:44:28;;;;;;;4.53;3.47;;;;;;;35.29;28.01;99985.50;5110537;28;20237;-54
2022/09/07 06:46:55;;;;;;;8.48;3.45;;;;;;;34.82;28.89;99993.22;5110800;28;20190;-53
2022/09/07 06:49:22;;;;;;;3.72;3.45;;;;;;;35.23;28.37;100001.56;5110653;28;20190;-54
2022/09/07 06:51:49;;;;;;;3.55;3.25;;;;;;;35.42;27.98;100008.25;5110431;28;20193;-53
2022/09/07 06:54:17;;;;;;;3.35;3.03;;;;;;;35.26;28.49;100009.31;5110290;28;20194;-54
2022/09/07 06:56:43;;;;;;;3.55;3.15;;;;;;;35.78;27.53;100019.81;5110315;28;20287;-55
2022/09/07 06:59:10;;;;;;;5.53;3.60;;;;;;;35.44;28.03;100011.59;5110540;28;20190;-53
2022/09/07 07:01:39;;;;;;;3.47;3.28;;;;;;;35.86;27.47;100026.97;5109943;28;20194;-53
2022/09/07 07:04:05;;;;;;;4.50;3.22;;;;;;;35.85;27.34;100014.50;5110102;28;20217;-59
2022/09/07 07:06:34;;;;;;;3.72;3.38;;;;;;;36.67;26.63;100012.78;5110293;28;20198;-58
2022/09/07 07:09:02;;;;;;;3.90;3.28;;;;;;;36.66;26.04;100021.09;5110741;28;20557;-59
2022/09/07 07:11:30;;;;;;;3.30;3.10;;;;;;;36.92;25.43;100021.22;5110081;28;20746;-59
2022/09/07 07:13:58;;;;;;;4.55;2.97;;;;;;;36.33;26.26;100027.16;5110320;28;20239;-59
2022/09/07 07:16:26;;;;;;;3.67;3.38;;;;;;;36.08;26.90;100027.75;5110321;28;20202;-59
2022/09/07 07:18:57;;;;;;;4.13;2.90;;;;;;;36.30;26.28;100007.78;5110463;28;20191;-53
2022/09/07 07:21:24;;;;;;;5.88;3.38;;;;;;;36.33;26.53;100029.00;5110197;28;20197;-54
2022/09/07 07:23:51;;;;;;;7.03;3.17;;;;;;;35.61;26.94;100024.63;5109964;28;20556;-53
2022/09/07 07:26:20;;;;;;;3.40;3.20;;;;;;;35.36;27.61;100023.34;5110114;28;20211;-54
2022/09/07 07:28:49;;;;;;;3.53;3.15;;;;;;;35.86;26.87;100017.00;5110035;28;20198;-58
2022/09/07 07:31:16;;;;;;;3.40;3.03;;;;;;;36.20;26.58;100016.22;5109858;28;20194;-59
2022/09/07 07:33:45;;;;;;;4.47;3.50;;;;;;;36.07;26.48;100009.88;5109828;28;20234;-59
2022/09/07 07:36:15;;;;;;;4.43;3.20;;;;;;;36.93;25.57;100016.63;5109812;28;20583;-58
2022/09/07 07:38:43;;;;;;;5.00;3.10;;;;;;;37.97;25.02;100011.66;5109798;28;20318;-59
2022/09/07 07:41:12;;;;;;;3.97;3.10;;;;;;;37.42;24.78;99995.56;5109740;28;20196;-59
2022/09/07 07:43:40;;;;;;;3.67;3.30;;;;;;;38.02;24.88;100026.25;5110178;28;20189;-60
2022/09/07 07:46:08;;;;;;;4.88;3.33;;;;;;;38.92;23.53;100029.22;5109796;28;20654;-58
2022/09/07 07:48:36;;;;;;;5.80;3.28;;;;;;;39.66;22.55;100028.59;5109773;28;20198;-59
2022/09/07 07:51:05;;;;;;;5.28;3.22;;;;;;;39.69;22.38;100023.56;5109648;28;20704;-58
2022/09/07 07:53:35;;;;;;;9.07;3.15;;;;;;;39.83;22.39;100037.88;5109923;28;20197;-58
2022/09/07 07:56:03;;;;;;;6.45;3.05;;;;;;;40.11;22.45;100045.59;5109623;28;20212;-59
2022/09/07 07:58:31;;;;;;;3.38;3.17;;;;;;;40.79;21.79;100040.94;5109114;28;20217;-59
2022/09/07 08:01:01;;;;;;;3.30;3.08;;;;;;;41.59;20.74;100033.38;5108347;28;20201;-60
2022/09/07 08:03:29;;;;;;;4.25;3.25;;;;;;;41.95;20.77;100028.81;5109574;28;20582;-59
2022/09/07 08:05:56;;;;;;;6.78;3.20;;;;;;;40.75;21.44;100022.59;5109396;28;20577;-58
2022/09/07 08:08:23;;;;;;;5.32;3.63;;;;;;;40.99;21.53;100021.63;5109230;28;20193;-53
2022/09/07 08:10:52;;;;;;;6.05;3.13;;;;;;;41.92;20.43;100021.94;5109365;28;20785;-53
2022/09/07 08:13:20;;;;;;;6.63;3.78;;;;;;;42.48;19.71;100025.16;5109362;28;20255;-52
2022/09/07 08:15:47;;;;;;;5.75;3.45;;;;;;;42.67;20.21;100024.75;5111463;28;20222;-52
2022/09/07 08:18:15;;;;;;;3.45;3.15;;;;;;;41.71;20.03;100008.03;5112533;28;20205;-53
2022/09/07 08:20:43;;;;;;;4.00;3.67;;;;;;;40.61;21.25;99992.78;5113070;28;20186;-53
2022/09/07 08:23:10;;;;;;;7.90;3.83;;;;;;;40.89;21.31;100015.91;5113117;28;20190;-53
2022/09/07 08:25:37;;;;;;;5.80;4.18;;;;;;;41.58;20.36;100012.66;5112994;28;20615;-53
2022/09/07 08:28:06;;;;;;;4.47;3.90;;;;;;;39.95;22.20;100017.09;5112991;28;20198;-53
2022/09/07 08:30:32;;;;;;;8.95;3.80;;;;;;;39.91;22.06;100010.44;5113109;28;20198;-53
2022/09/07 08:32:59;;;;;;;9.75;4.05;;;;;;;38.32;23.20;99996.81;5112629;28;20232;-53
2022/09/07 08:35:26;;;;;;;15.60;4.53;;;;;;;37.76;23.86;100000.00;5113170;28;20587;-52
2022/09/07 08:37:53;;;;;;;7.65;3.65;;;;;;;36.36;25.42;99990.75;5113011;28;20222;-53
2022/09/07 08:40:20;;;;;;;8.65;3.90;;;;;;;36.48;25.65;99983.75;5112841;28;20198;-53
2022/09/07 08:43:03;;;;;;;6.18;4.28;;;;;;;35.25;26.97;99965.31;5112904;28;20200;-53
2022/09/07 08:45:37;;;;;;;9.05;6.63;;;;;;;33.72;28.92;99966.06;5112734;28;20209;-52
2022/09/07 08:48:05;;;;;;;7.47;5.40;;;;;;;32.55;30.83;99934.03;5112352;28;20195;-53
2022/09/07 08:50:38;;;;;;;8.68;4.43;;;;;;;31.58;32.65;99948.50;5112705;28;20289;-52
2022/09/07 08:53:12;;;;;;;4.57;4.18;;;;;;;30.73;34.34;99962.22;5112607;28;20190;-52
2022/09/07 08:55:41;;;;;;;7.45;4.03;;;;;;;30.51;35.08;99936.84;5112456;28;20679;-58
2022/09/07 08:58:12;;;;;;;11.60;4.03;;;;;;;31.77;33.67;99957.22;5113033;28;20616;-58
2022/09/07 09:00:41;;;;;;;5.45;3.70;;;;;;;32.68;31.65;99946.91;5112871;28;20202;-58
2022/09/07 09:03:19;;;;;;;10.10;4.20;;;;;;;33.29;31.26;99956.00;5112816;28;20203;-58
2022/09/07 09:05:57;;;;;;;5.72;3.55;;;;;;;34.54;28.93;99953.44;5112729;28;20197;-59
2022/09/07 09:08:37;;;;;;;4.28;3.85;;;;;;;33.35;30.69;99949.91;5112613;28;20234;-59
2022/09/07 09:11:10;;;;;;;3.90;3.50;;;;;;;33.93;28.50;99953.78;5112606;28;20663;-52
2022/09/07 09:13:51;;;;;;;6.68;4.05;;;;;;;33.49;28.92;99946.44;5112596;28;20580;-59
2022/09/07 09:16:29;;;;;;;3.67;3.13;;;;;;;32.15;30.10;99940.38;5112276;28;20194;-53
2022/09/07 09:19:12;;;;;;;3.03;2.83;;;;;;;30.57;33.17;99938.91;5112130;28;20226;-53
2022/09/07 09:21:41;;;;;;;3.30;2.97;;;;;;;29.57;35.31;99932.25;5112360;28;20323;-53
2022/09/07 09:24:15;;;;;;;3.72;3.40;;;;;;;28.81;36.30;99921.16;5111960;28;20199;-54
2022/09/07 09:26:45;;;;;;;5.57;3.15;;;;;;;28.32;38.36;99916.22;5111615;28;20293;-52
2022/09/07 09:29:14;;;;;;;3.80;3.60;;;;;;;27.96;38.04;99902.72;5112100;28;20302;-52
2022/09/07 09:31:42;;;;;;;6.00;4.80;;;;;;;27.84;38.92;99919.88;5112078;28;20586;-52
2022/09/07 09:34:11;;;;;;;5.88;3.70;;;;;;;28.08;38.38;99912.22;5111413;28;20197;-53
2022/09/07 09:36:46;;;;;;;3.72;3.42;;;;;;;29.93;35.55;99918.78;5111853;28;20201;-53
2022/09/07 09:39:27;;;;;;;3.30;3.10;;;;;;;32.00;31.65;99920.59;5111161;28;20210;-53
2022/09/07 09:41:56;;;;;;;5.30;3.10;;;;;;;32.57;29.33;99925.78;5111813;28;20200;-53
2022/09/07 09:44:23;;;;;;;8.65;3.70;;;;;;;32.64;29.30;99919.53;5111956;28;20277;-52
2022/09/07 09:46:53;;;;;;;3.42;3.20;;;;;;;31.85;29.68;99919.63;5111699;28;20206;-51
2022/09/07 09:49:24;;;;;;;3.85;3.08;;;;;;;30.44;31.71;99912.53;5111945;28;20287;-58
2022/09/07 09:51:55;;;;;;;3.53;3.08;;;;;;;29.60;33.74;99918.56;5111733;28;20206;-58
2022/09/07 09:54:26;;;;;;;3.38;3.10;;;;;;;28.85;35.19;99909.19;5111788;28;20230;-52
2022/09/07 09:56:53;;;;;;;6.72;3.47;;;;;;;28.32;35.93;99893.03;5105099;28;20199;-52
2022/09/07 09:59:27;;;;;;;3.50;3.30;;;;;;;27.92;37.65;99887.97;5098330;28;20308;-58
2022/09/07 10:01:56;;;;;;;3.50;3.20;;;;;;;27.42;38.28;99880.22;5091866;28;20272;-58
2022/09/07 10:04:31;;;;;;;10.00;3.92;;;;;;;26.96;38.70;99882.75;5091929;28;20209;-58
2022/09/07 10:07:07;;;;;;;6.88;3.45;;;;;;;26.86;39.30;99869.41;5091924;28;20194;-58
2022/09/07 10:09:36;;;;;;;5.85;3.50;;;;;;;26.82;39.26;99870.66;5092096;28;20190;-58
2022/09/07 10:12:05;;;;;;;3.40;3.08;;;;;;;26.70;39.33;99880.59;5091993;28;20196;-58
2022/09/07 10:14:35;;;;;;;7.13;2.85;;;;;;;26.87;39.96;99865.72;5091588;28;20287;-58
2022/09/07 10:17:12;;;;;;;3.05;2.85;;;;;;;26.77;40.49;99865.72;5091025;28;20217;-58
2022/09/07 10:19:41;;;;;;;3.17;2.97;;;;;;;26.66;40.32;99846.38;5091311;28;20228;-52
2022/09/07 10:22:24;;;;;;;2.75;2.63;;;;;;;26.72;40.69;99860.00;5108189;28;20219;-53
2022/09/07 10:24:51;;;;;;;2.75;2.65;;;;;;;26.51;41.38;99855.75;5108331;28;20281;-53
2022/09/07 10:27:30;;;;;;;3.67;2.75;;;;;;;26.47;41.63;99847.19;5110058;28;20198;-53
2022/09/07 10:29:58;;;;;;;5.30;2.72;;;;;;;26.44;41.54;99838.63;5109273;28;20721;-52
2022/09/07 10:32:42;;;;;;;3.08;2.75;;;;;;;26.46;41.45;99836.69;5110133;28;20222;-53
2022/09/07 10:35:18;;;;;;;4.25;3.03;;;;;;;26.56;40.86;99832.22;5107939;28;20195;-53
2022/09/07 10:37:56;;;;;;;5.18;3.25;;;;;;;26.54;41.30;99821.69;5109482;28;20218;-58
2022/09/07 10:40:33;;;;;;;4.47;3.00;;;;;;;26.42;41.86;99814.81;5110478;28;20286;-58
2022/09/07 10:43:16;;;;;;;3.25;3.05;;;;;;;26.41;40.94;99821.16;5110760;28;20227;-58
2022/09/07 10:46:22;;;;;;;3.25;3.05;;;;;;;26.34;40.72;99830.63;5109979;28;20198;-58
2022/09/07 10:49:00;;;;;;;2.72;2.60;;;;;;;26.13;41.27;99824.53;5067736;28;20187;-58
2022/09/07 10:51:36;;;;;;;2.88;2.65;;;;;;;26.12;41.25;99823.69;5103638;28;20202;-59
2022/09/07 10:54:14;;;;;;;3.42;2.80;;;;;;;26.27;41.95;99822.38;5110572;28;20194;-59
2022/09/07 10:56:49;;;;;;;3.78;2.88;;;;;;;26.32;41.53;99813.97;5110775;28;20205;-58
2022/09/07 10:59:32;;;;;;;4.38;3.05;;;;;;;26.53;41.58;99808.53;5110684;28;20218;-57
2022/09/07 11:02:10;;;;;;;3.50;3.17;;;;;;;26.60;41.67;99791.88;5110197;28;20202;-57
2022/09/07 11:04:51;;;;;;;4.00;2.88;;;;;;;26.73;41.68;99804.91;5110529;28;20677;-51
2022/09/07 11:07:31;;;;;;;4.55;2.55;;;;;;;26.60;42.06;99810.50;5110436;28;20627;-58
2022/09/07 11:10:02;;;;;;;3.22;3.03;;;;;;;26.44;42.58;99799.56;5110067;28;20194;-58
2022/09/07 11:12:33;;;;;;;4.00;3.45;;;;;;;26.55;42.37;99793.25;5110428;28;20267;-58
2022/09/07 11:15:14;;;;;;;3.90;3.25;;;;;;;26.46;42.69;99778.13;5110045;28;20201;-57
2022/09/07 11:17:45;;;;;;;4.43;3.03;;;;;;;26.53;42.72;99801.38;5110254;28;20256;-51
2022/09/07 11:20:22;;;;;;;6.28;3.05;;;;;;;26.50;42.69;99796.34;5110024;28;20209;-51
2022/09/07 11:22:52;;;;;;;3.40;3.20;;;;;;;26.63;42.66;99790.75;5110060;28;20194;-51
2022/09/07 11:25:24;;;;;;;3.28;2.95;;;;;;;26.77;41.63;99793.81;5109888;28;20198;-51
2022/09/07 11:27:56;;;;;;;4.10;3.63;;;;;;;26.82;41.54;99787.25;5109862;28;20705;-52
2022/09/07 11:30:27;;;;;;;5.63;3.08;;;;;;;26.72;41.52;99766.78;5110495;28;20206;-58
2022/09/07 11:33:05;;;;;;;3.42;3.22;;;;;;;26.74;41.60;99779.97;5109737;28;20226;-52
2022/09/07 11:35:40;;;;;;;3.85;3.35;;;;;;;26.67;42.11;99778.81;5109737;28;20194;-52
2022/09/07 11:38:17;;;;;;;3.78;3.38;;;;;;;26.65;42.67;99770.97;5109526;28;20224;-52
2022/09/07 11:40:55;;;;;;;3.22;3.00;;;;;;;26.76;41.91;99759.34;5110041;28;20190;-58
2022/09/07 11:43:27;;;;;;;3.72;3.10;;;;;;;26.86;42.09;99759.34;5110075;28;20615;-58
2022/09/07 11:45:59;;;;;;;2.95;2.72;;;;;;;26.91;42.59;99757.94;5109939;28;20205;-58